Time;durP1;ratioP1;P1;durP2;ratioP2;P2;SDS_P1;SDS_P2;PMS_P1;PMS_P2;Temp;Humidity;BMP_temperature;BMP_pressure;BME280_temperature;BME280_humidity;BME280_pressure;Samples;Min_cycle;Max_cycle;Signal;HPM_P1;HPM_P2
2023/06/26 00:01:48;;;;;;;8.00;7.40;;;;;;;21.17;100.00;101366.94;5009832;28;20506;-49
2023/06/26 00:04:16;;;;;;;7.10;6.53;;;;;;;21.14;100.00;101359.28;5008797;28;21024;-47
2023/06/26 00:06:43;;;;;;;6.63;6.03;;;;;;;21.13;100.00;101355.75;4986269;28;20464;-47
2023/06/26 00:09:12;;;;;;;6.87;6.47;;;;;;;21.10;100.00;101353.56;5009257;28;20495;-47
2023/06/26 00:11:41;;;;;;;7.40;6.80;;;;;;;21.05;100.00;101347.22;5009803;28;20516;-43
2023/06/26 00:14:08;;;;;;;7.57;6.97;;;;;;;21.03;100.00;101341.22;5009804;28;20491;-47
2023/06/26 00:16:37;;;;;;;7.60;7.10;;;;;;;20.98;100.00;101348.22;4986144;28;20469;-49
2023/06/26 00:19:04;;;;;;;16.13;6.57;;;;;;;20.96;100.00;101336.81;5009079;28;20985;-46
2023/06/26 00:21:32;;;;;;;6.73;6.33;;;;;;;20.95;100.00;101337.03;5009023;28;20432;-44
2023/06/26 00:24:00;;;;;;;7.80;7.07;;;;;;;20.93;100.00;101341.91;5009568;28;20524;-45
2023/06/26 00:26:27;;;;;;;6.73;6.33;;;;;;;20.91;100.00;101339.44;4983825;28;20469;-45
2023/06/26 00:28:56;;;;;;;6.40;5.90;;;;;;;20.90;100.00;101332.38;5009282;28;20440;-44
2023/06/26 00:31:24;;;;;;;6.57;6.17;;;;;;;20.89;100.00;101324.47;5009295;28;20440;-42
2023/06/26 00:33:52;;;;;;;6.63;6.13;;;;;;;20.88;100.00;101320.13;5009389;28;20794;-45
2023/06/26 00:36:22;;;;;;;8.60;7.10;;;;;;;20.84;100.00;101324.44;5009371;28;20476;-45
2023/06/26 00:38:50;;;;;;;7.47;6.90;;;;;;;20.82;100.00;101323.84;4983893;28;20451;-48
2023/06/26 00:41:18;;;;;;;6.97;6.47;;;;;;;20.79;100.00;101319.75;5009229;28;20475;-43
2023/06/26 00:43:46;;;;;;;6.33;5.93;;;;;;;20.80;100.00;101320.56;5009054;28;20934;-44
2023/06/26 00:46:15;;;;;;;6.83;6.37;;;;;;;20.77;100.00;101321.88;5009039;28;20459;-47
2023/06/26 00:48:46;;;;;;;8.17;6.53;;;;;;;20.74;100.00;101316.13;4983329;28;20452;-48
2023/06/26 00:51:14;;;;;;;7.77;7.17;;;;;;;20.70;100.00;101310.38;5008546;28;20524;-44
2023/06/26 00:53:43;;;;;;;6.80;6.40;;;;;;;20.69;100.00;101310.66;5009310;28;20436;-44
2023/06/26 00:56:12;;;;;;;6.23;5.67;;;;;;;20.67;100.00;101308.19;5008629;28;20472;-44
2023/06/26 00:58:40;;;;;;;6.27;5.80;;;;;;;20.65;100.00;101304.91;4996788;28;20472;-46
2023/06/26 01:01:08;;;;;;;6.97;6.47;;;;;;;20.63;100.00;101307.06;5009067;28;20440;-44
2023/06/26 01:03:39;;;;;;;6.63;6.07;;;;;;;20.58;100.00;101296.13;5009536;28;20460;-45
2023/06/26 01:06:11;;;;;;;6.53;5.93;;;;;;;20.53;100.00;101292.53;5009206;28;20428;-44
2023/06/26 01:08:39;;;;;;;9.90;6.70;;;;;;;20.51;100.00;101295.50;4983638;28;20540;-43
2023/06/26 01:11:07;;;;;;;7.07;6.57;;;;;;;20.47;100.00;101293.50;5009088;28;20472;-46
2023/06/26 01:13:37;;;;;;;6.97;6.50;;;;;;;20.42;100.00;101284.25;5008470;28;20436;-44
2023/06/26 01:16:06;;;;;;;7.50;6.90;;;;;;;20.41;100.00;101290.75;5008891;28;20891;-45
2023/06/26 01:18:35;;;;;;;8.00;7.40;;;;;;;20.36;100.00;101282.53;4986675;28;20475;-47
2023/06/26 01:21:05;;;;;;;8.67;7.87;;;;;;;20.36;100.00;101281.72;5011976;28;20460;-45
2023/06/26 01:23:40;;;;;;;7.27;6.70;;;;;;;20.35;100.00;101271.94;5011452;28;20431;-45
2023/06/26 01:26:17;;;;;;;6.90;6.40;;;;;;;20.33;100.00;101268.69;5012120;28;20464;-47
2023/06/26 01:28:45;;;;;;;6.17;5.73;;;;;;;20.31;100.00;101266.19;4993312;28;20433;-46
2023/06/26 01:31:14;;;;;;;7.30;6.67;;;;;;;20.28;100.00;101250.44;5011910;28;20488;-45
2023/06/26 01:33:43;;;;;;;7.10;6.40;;;;;;;20.28;100.00;101257.78;5012145;28;20523;-45
2023/06/26 01:36:11;;;;;;;6.27;5.90;;;;;;;20.26;100.00;101254.47;5011835;28;20511;-44
2023/06/26 01:38:39;;;;;;;6.67;6.07;;;;;;;20.23;100.00;101255.75;5012099;28;20432;-44
2023/06/26 01:41:07;;;;;;;7.20;6.60;;;;;;;20.20;100.00;101255.44;4986620;28;20492;-42
2023/06/26 01:43:44;;;;;;;7.43;6.73;;;;;;;20.18;100.00;101250.28;5011788;28;20514;-45
2023/06/26 01:46:19;;;;;;;7.43;6.93;;;;;;;20.17;100.00;101245.09;5012274;28;20460;-44
2023/06/26 01:48:52;;;;;;;7.50;6.87;;;;;;;20.13;100.00;101247.47;5012025;28;20436;-48
2023/06/26 01:51:28;;;;;;;7.20;6.70;;;;;;;20.12;100.00;101235.00;4986137;28;20499;-42
2023/06/26 01:53:58;;;;;;;6.93;6.43;;;;;;;20.12;100.00;101239.59;5011720;28;20432;-43
2023/06/26 01:56:29;;;;;;;8.37;7.77;;;;;;;20.13;100.00;101236.63;5011221;28;20468;-44
2023/06/26 01:58:59;;;;;;;7.97;7.37;;;;;;;20.11;100.00;101233.38;5011820;28;20595;-45
2023/06/26 02:01:26;;;;;;;8.40;7.80;;;;;;;20.08;100.00;101239.28;4985939;28;20461;-42
2023/06/26 02:03:54;;;;;;;8.40;7.70;;;;;;;20.06;100.00;101238.72;5011333;28;20836;-45
2023/06/26 02:06:22;;;;;;;9.10;8.40;;;;;;;20.04;100.00;101231.91;5011387;28;20444;-44
2023/06/26 02:08:50;;;;;;;10.77;9.83;;;;;;;20.01;100.00;101221.56;5011084;28;20475;-44
2023/06/26 02:11:17;;;;;;;8.20;7.53;;;;;;;19.98;100.00;101214.75;5005786;28;20437;-45
2023/06/26 02:13:45;;;;;;;9.27;8.57;;;;;;;19.97;100.00;101215.00;5004688;28;20484;-44
2023/06/26 02:16:16;;;;;;;8.43;7.50;;;;;;;19.95;100.00;101207.09;5003075;28;20468;-45
2023/06/26 02:18:43;;;;;;;8.40;7.80;;;;;;;19.94;100.00;101213.63;5011392;28;20508;-43
2023/06/26 02:21:11;;;;;;;9.10;7.53;;;;;;;19.91;100.00;101216.00;5010985;28;20472;-48
2023/06/26 02:23:39;;;;;;;8.93;8.23;;;;;;;19.89;100.00;101210.84;4985492;28;20457;-46
2023/06/26 02:26:06;;;;;;;7.77;7.17;;;;;;;19.87;100.00;101197.53;5011860;28;20508;-43
2023/06/26 02:28:34;;;;;;;8.73;8.03;;;;;;;19.83;100.00;101201.00;5010760;28;20806;-42
2023/06/26 02:31:02;;;;;;;10.87;9.10;;;;;;;19.80;100.00;101196.06;5010591;28;20439;-43
2023/06/26 02:33:32;;;;;;;8.97;8.07;;;;;;;19.75;100.00;101204.91;4985459;28;20464;-46
2023/06/26 02:35:59;;;;;;;8.27;7.67;;;;;;;19.72;100.00;101202.69;5010736;28;20468;-43
2023/06/26 02:38:27;;;;;;;8.30;7.70;;;;;;;19.71;100.00;101192.94;5010902;28;20440;-45
2023/06/26 02:40:55;;;;;;;9.60;8.73;;;;;;;19.68;100.00;101196.13;5010872;28;20523;-43
2023/06/26 02:43:22;;;;;;;8.63;7.93;;;;;;;19.67;100.00;101190.97;4988248;28;20499;-44
2023/06/26 02:45:50;;;;;;;10.07;9.33;;;;;;;19.66;100.00;101194.72;5010278;28;20792;-44
2023/06/26 02:48:18;;;;;;;9.83;9.13;;;;;;;19.62;100.00;101188.19;5010748;28;20531;-48
2023/06/26 02:50:47;;;;;;;8.50;7.77;;;;;;;19.63;100.00;101181.69;5010379;28;20974;-47
2023/06/26 02:53:15;;;;;;;9.10;8.50;;;;;;;19.62;100.00;101180.06;4991582;28;20436;-46
2023/06/26 02:55:43;;;;;;;8.27;7.77;;;;;;;19.62;100.00;101183.56;5009641;28;20433;-44
2023/06/26 02:58:11;;;;;;;9.30;8.60;;;;;;;19.60;100.00;101183.00;5010197;28;20476;-46
2023/06/26 03:00:41;;;;;;;8.93;8.33;;;;;;;19.60;100.00;101174.91;5010193;28;20487;-47
2023/06/26 03:03:09;;;;;;;8.80;8.10;;;;;;;19.62;100.00;101180.06;5010435;28;20432;-43
2023/06/26 03:05:36;;;;;;;10.20;9.40;;;;;;;19.62;100.00;101172.75;4985181;28;20483;-50
2023/06/26 03:08:06;;;;;;;9.30;8.70;;;;;;;19.63;100.00;101170.88;5010553;28;20432;-43
2023/06/26 03:10:33;;;;;;;7.97;7.37;;;;;;;19.68;100.00;101165.56;5010496;28;20492;-41
2023/06/26 03:13:01;;;;;;;9.47;8.77;;;;;;;19.71;100.00;101163.16;5010626;28;20536;-45
2023/06/26 03:15:29;;;;;;;9.57;8.97;;;;;;;19.75;100.00;101158.09;4990018;28;20472;-44
2023/06/26 03:17:57;;;;;;;10.30;9.30;;;;;;;19.76;100.00;101157.03;5009522;28;20484;-44
2023/06/26 03:20:24;;;;;;;9.53;8.87;;;;;;;19.77;100.00;101158.69;5009933;28;20461;-42
2023/06/26 03:22:52;;;;;;;9.77;8.97;;;;;;;19.81;100.00;101162.50;5009653;28;20523;-44
2023/06/26 03:25:21;;;;;;;10.07;9.33;;;;;;;19.86;100.00;101165.31;4987502;28;20459;-46
2023/06/26 03:27:49;;;;;;;10.97;10.17;;;;;;;19.93;100.00;101155.13;5010270;28;20437;-44
2023/06/26 03:30:17;;;;;;;10.20;9.50;;;;;;;20.18;100.00;101150.06;5009838;28;20514;-44
2023/06/26 03:32:44;;;;;;;10.00;9.20;;;;;;;20.24;100.00;101138.25;5009881;28;20440;-43
2023/06/26 03:35:12;;;;;;;10.40;9.60;;;;;;;20.27;100.00;101148.63;5010150;28;20433;-47
2023/06/26 03:37:40;;;;;;;11.37;10.47;;;;;;;20.31;100.00;101141.59;4986368;28;20488;-43
2023/06/26 03:40:09;;;;;;;10.83;9.90;;;;;;;20.36;100.00;101143.56;5008828;28;20915;-48
2023/06/26 03:42:38;;;;;;;9.53;8.83;;;;;;;20.42;100.00;101143.41;5009598;28;20494;-44
2023/06/26 03:45:06;;;;;;;9.97;9.23;;;;;;;20.50;100.00;101146.72;5010001;28;20468;-44
2023/06/26 03:47:34;;;;;;;9.63;9.00;;;;;;;20.59;100.00;101145.22;4986839;28;20464;-42
2023/06/26 03:50:02;;;;;;;10.70;10.00;;;;;;;20.67;100.00;101134.72;5009382;28;20499;-41
2023/06/26 03:52:31;;;;;;;10.90;10.20;;;;;;;20.72;100.00;101134.81;5009228;28;20433;-43
2023/06/26 03:54:59;;;;;;;11.10;10.20;;;;;;;20.77;100.00;101131.31;5009624;28;20850;-45
2023/06/26 03:57:26;;;;;;;11.13;10.33;;;;;;;20.86;100.00;101122.50;4986080;28;20519;-48
2023/06/26 03:59:56;;;;;;;10.63;9.93;;;;;;;20.94;100.00;101130.16;5009508;28;20487;-45
2023/06/26 04:02:23;;;;;;;10.27;9.57;;;;;;;21.10;100.00;101123.03;5009283;28;20854;-43
2023/06/26 04:04:51;;;;;;;11.83;11.03;;;;;;;21.19;100.00;101116.06;5009660;28;20519;-49
2023/06/26 04:07:19;;;;;;;10.57;9.77;;;;;;;21.27;100.00;101118.31;4985940;28;21065;-45
2023/06/26 04:09:47;;;;;;;11.97;11.17;;;;;;;21.44;100.00;101113.56;5009210;28;20448;-46
2023/06/26 04:12:15;;;;;;;10.90;10.20;;;;;;;21.57;100.00;101104.16;5009489;28;20433;-42
2023/06/26 04:14:42;;;;;;;11.93;11.03;;;;;;;21.67;100.00;101101.53;5010067;28;20475;-45
2023/06/26 04:17:12;;;;;;;11.37;10.57;;;;;;;21.86;100.00;101096.50;5009226;28;20982;-46
2023/06/26 04:19:40;;;;;;;11.47;10.60;;;;;;;22.03;100.00;101099.88;4998064;28;20547;-45
2023/06/26 04:22:08;;;;;;;10.10;9.40;;;;;;;22.14;100.00;101093.41;5014928;28;20432;-44
2023/06/26 04:24:36;;;;;;;11.33;10.40;;;;;;;22.28;100.00;101097.28;5014635;28;20443;-43
2023/06/26 04:27:05;;;;;;;11.80;10.87;;;;;;;22.44;100.00;101087.28;5014950;28;20456;-46
2023/06/26 04:29:32;;;;;;;9.90;9.20;;;;;;;22.71;100.00;101081.69;4991187;28;20480;-42
2023/06/26 04:32:00;;;;;;;11.37;10.67;;;;;;;23.43;100.00;101086.97;5015463;28;20494;-42
2023/06/26 04:34:32;;;;;;;12.10;11.20;;;;;;;24.48;100.00;101083.16;5015844;28;20440;-42
2023/06/26 04:37:03;;;;;;;11.47;10.30;;;;;;;25.44;100.00;101074.34;5015203;28;21162;-43
2023/06/26 04:39:31;;;;;;;11.17;10.47;;;;;;;26.53;100.00;101067.09;4996720;28;20859;-45
2023/06/26 04:41:59;;;;;;;9.73;9.10;;;;;;;27.33;100.00;101062.31;5015320;28;20826;-43
2023/06/26 04:44:27;;;;;;;9.90;9.30;;;;;;;28.16;100.00;101057.81;5015147;28;20705;-43
2023/06/26 04:46:56;;;;;;;10.90;10.20;;;;;;;28.76;100.00;101058.44;5014864;28;20460;-45
2023/06/26 04:49:24;;;;;;;10.30;9.60;;;;;;;29.36;96.92;101045.94;4999059;28;20559;-45
2023/06/26 04:51:53;;;;;;;9.50;9.00;;;;;;;29.86;90.32;101057.56;5017485;28;20475;-43
2023/06/26 04:54:20;;;;;;;9.00;8.50;;;;;;;30.38;85.71;101046.69;5018607;28;20472;-45
2023/06/26 04:56:49;;;;;;;9.33;8.73;;;;;;;30.86;82.12;101043.81;5019459;28;20480;-42
2023/06/26 04:59:17;;;;;;;9.40;8.87;;;;;;;31.21;78.05;101051.75;4994802;28;20213;-42
2023/06/26 05:01:48;;;;;;;9.17;8.63;;;;;;;31.67;73.04;101045.50;5017668;28;20942;-43
2023/06/26 05:04:16;;;;;;;10.20;9.50;;;;;;;32.02;72.29;101040.63;5018870;28;20190;-44
2023/06/26 05:06:44;;;;;;;10.90;10.10;;;;;;;32.38;69.79;101033.78;5019503;28;20683;-45
2023/06/26 05:09:13;;;;;;;10.43;9.73;;;;;;;32.67;67.17;101040.09;4995069;28;20579;-44
2023/06/26 05:11:41;;;;;;;9.18;8.57;;;;;;;33.11;65.77;101035.81;5016617;28;20221;-43
2023/06/26 05:14:09;;;;;;;9.50;8.60;;;;;;;33.41;63.17;101030.94;5017056;28;20193;-44
2023/06/26 05:16:36;;;;;;;9.90;9.05;;;;;;;33.87;58.85;101024.22;5016474;28;20297;-48
2023/06/26 05:19:04;;;;;;;8.50;7.90;;;;;;;34.12;58.44;101014.75;5011652;28;20275;-49
2023/06/26 05:21:32;;;;;;;9.90;9.20;;;;;;;34.16;55.26;101018.44;5011039;28;20675;-46
2023/06/26 05:24:03;;;;;;;8.65;8.15;;;;;;;34.36;53.93;101009.16;5017535;28;20312;-50
2023/06/26 05:26:33;;;;;;;8.68;8.00;;;;;;;34.75;53.25;101004.78;5017861;28;20189;-51
2023/06/26 05:29:01;;;;;;;8.60;8.00;;;;;;;35.11;52.12;100998.28;5016968;28;20256;-45
2023/06/26 05:31:31;;;;;;;10.05;9.45;;;;;;;35.20;49.23;100993.38;4993038;28;20229;-45
2023/06/26 05:34:03;;;;;;;8.32;7.82;;;;;;;35.32;48.62;100998.84;5016302;28;20289;-46
2023/06/26 05:36:32;;;;;;;9.52;8.57;;;;;;;35.51;48.27;100987.84;5016788;28;20612;-45
2023/06/26 05:39:02;;;;;;;9.95;9.05;;;;;;;35.75;46.60;100995.22;5016509;28;20226;-44
2023/06/26 05:41:32;;;;;;;9.27;8.68;;;;;;;35.85;47.68;100983.53;4997001;28;20303;-47
2023/06/26 05:43:59;;;;;;;10.13;9.43;;;;;;;35.31;45.60;100990.88;5016441;28;20229;-47
2023/06/26 05:46:27;;;;;;;8.63;8.02;;;;;;;35.55;44.56;100982.38;5016399;28;20197;-43
2023/06/26 05:48:55;;;;;;;8.75;8.25;;;;;;;35.99;45.48;100986.63;5016830;28;20194;-48
2023/06/26 05:51:23;;;;;;;9.63;8.80;;;;;;;36.07;44.22;100976.53;4992199;28;20214;-43
2023/06/26 05:53:51;;;;;;;8.35;7.75;;;;;;;35.90;44.53;100979.69;5016210;28;20198;-43
2023/06/26 05:56:19;;;;;;;8.18;7.35;;;;;;;36.10;44.17;100967.50;5015870;28;20194;-44
2023/06/26 05:58:50;;;;;;;8.35;7.85;;;;;;;36.36;44.15;100966.84;5016086;28;20225;-44
2023/06/26 06:01:18;;;;;;;8.57;8.07;;;;;;;36.69;42.20;100969.13;4992812;28;20559;-46
2023/06/26 06:03:46;;;;;;;9.95;9.05;;;;;;;37.01;41.59;100957.47;5014870;28;20209;-46
2023/06/26 06:06:15;;;;;;;9.27;8.68;;;;;;;37.07;41.91;100963.53;5015667;28;20201;-46
2023/06/26 06:08:43;;;;;;;9.25;8.68;;;;;;;37.19;41.20;100968.13;5016319;28;20754;-48
2023/06/26 06:11:15;;;;;;;9.32;8.70;;;;;;;37.28;40.24;100961.13;4989863;28;20292;-45
2023/06/26 06:13:43;;;;;;;8.13;7.63;;;;;;;37.61;40.28;100960.50;5015829;28;20672;-43
2023/06/26 06:16:12;;;;;;;8.93;8.43;;;;;;;37.75;39.37;100959.94;5015752;28;20312;-45
2023/06/26 06:18:39;;;;;;;8.93;7.97;;;;;;;38.21;38.90;100958.63;5016259;28;20217;-45
2023/06/26 06:21:07;;;;;;;9.15;8.55;;;;;;;38.32;37.38;100955.97;5016498;28;20533;-43
2023/06/26 06:23:35;;;;;;;8.55;7.85;;;;;;;38.62;38.33;100946.41;4990936;28;20285;-46
2023/06/26 06:26:02;;;;;;;8.18;7.68;;;;;;;38.68;37.83;100946.91;5016386;28;20202;-45
2023/06/26 06:28:30;;;;;;;8.10;7.50;;;;;;;38.77;36.87;100933.44;5018090;28;20257;-45
2023/06/26 06:30:58;;;;;;;8.70;8.20;;;;;;;38.93;35.91;100936.81;5017065;28;20216;-44
2023/06/26 06:33:27;;;;;;;7.82;7.30;;;;;;;38.38;37.35;100937.78;4997819;28;20249;-45
2023/06/26 06:35:55;;;;;;;8.75;8.18;;;;;;;38.76;36.03;100926.25;5017171;28;20202;-47
2023/06/26 06:38:22;;;;;;;8.93;8.32;;;;;;;38.87;36.89;100930.00;5017589;28;20245;-45
2023/06/26 06:40:50;;;;;;;7.45;7.05;;;;;;;39.01;36.59;100929.34;5016799;28;20226;-47
2023/06/26 06:43:18;;;;;;;9.13;8.63;;;;;;;39.22;34.94;100912.78;5016581;28;20193;-45
2023/06/26 06:45:46;;;;;;;9.27;8.65;;;;;;;39.28;35.83;100914.03;4987456;28;20277;-46
2023/06/26 06:48:13;;;;;;;9.10;8.50;;;;;;;39.74;35.60;100912.41;5014607;28;20549;-52
2023/06/26 06:50:43;;;;;;;9.10;8.43;;;;;;;39.80;34.73;100907.25;5014760;28;20229;-45
2023/06/26 06:53:10;;;;;;;8.98;8.38;;;;;;;39.73;34.29;100902.41;5014427;28;20194;-47
2023/06/26 06:55:38;;;;;;;9.40;8.55;;;;;;;39.55;33.69;100903.47;4984693;28;20349;-47
2023/06/26 06:58:06;;;;;;;8.07;7.47;;;;;;;39.75;33.03;100888.09;5014748;28;20816;-43
2023/06/26 07:00:33;;;;;;;10.00;9.25;;;;;;;39.89;34.00;100893.72;5014295;28;20304;-46
2023/06/26 07:03:01;;;;;;;7.93;7.43;;;;;;;39.96;32.81;100892.97;5014591;28;20190;-48
2023/06/26 07:05:29;;;;;;;7.90;7.30;;;;;;;40.08;32.75;100885.09;4989613;28;20717;-46
2023/06/26 07:07:58;;;;;;;7.70;7.30;;;;;;;40.17;33.78;100882.72;5014644;28;20197;-49
2023/06/26 07:10:29;;;;;;;9.13;8.63;;;;;;;40.16;31.79;100871.94;5014239;28;20213;-43
2023/06/26 07:12:57;;;;;;;8.25;7.75;;;;;;;39.94;32.85;100879.38;5014077;28;20202;-47
2023/06/26 07:15:24;;;;;;;8.30;7.63;;;;;;;40.21;32.94;100875.13;4996349;28;20221;-47
2023/06/26 07:17:54;;;;;;;8.27;7.68;;;;;;;39.84;33.02;100877.38;5014135;28;20228;-46
2023/06/26 07:20:22;;;;;;;6.88;6.43;;;;;;;40.20;33.24;100867.97;5014009;28;20269;-47
2023/06/26 07:22:49;;;;;;;8.18;7.72;;;;;;;40.35;31.57;100866.00;5014184;28;20202;-44
2023/06/26 07:25:19;;;;;;;7.88;7.47;;;;;;;40.27;32.07;100870.78;5013749;28;20198;-44
2023/06/26 07:27:46;;;;;;;8.02;7.53;;;;;;;40.10;31.81;100862.34;4994777;28;20275;-43
2023/06/26 07:30:14;;;;;;;11.52;8.23;;;;;;;39.44;32.53;100866.31;5014159;28;20692;-43
2023/06/26 07:32:42;;;;;;;7.85;7.45;;;;;;;39.06;33.00;100865.63;5014698;28;20607;-47
2023/06/26 07:35:10;;;;;;;8.00;7.32;;;;;;;39.59;32.99;100868.00;5015323;28;20225;-48
2023/06/26 07:37:38;;;;;;;7.18;6.78;;;;;;;38.74;33.17;100856.16;4988989;28;20201;-44
2023/06/26 07:40:06;;;;;;;8.23;7.72;;;;;;;37.80;34.12;100859.41;5015094;28;20291;-45
2023/06/26 07:42:35;;;;;;;8.80;8.10;;;;;;;37.12;34.13;100857.59;5013752;28;20248;-45
2023/06/26 07:45:09;;;;;;;8.15;7.63;;;;;;;36.55;34.94;100851.03;5013361;28;20209;-45
2023/06/26 07:47:37;;;;;;;8.90;8.30;;;;;;;36.36;35.87;100836.31;4997512;28;20223;-49
2023/06/26 07:50:06;;;;;;;8.27;7.78;;;;;;;36.82;36.78;100829.66;5013503;28;20313;-44
2023/06/26 07:52:33;;;;;;;8.07;7.57;;;;;;;36.94;36.39;100831.44;5014979;28;20197;-46
2023/06/26 07:55:01;;;;;;;7.72;7.32;;;;;;;37.13;35.79;100834.16;5014525;28;20541;-45
2023/06/26 07:57:30;;;;;;;9.20;8.60;;;;;;;37.16;35.20;100827.06;4987664;28;20193;-43
2023/06/26 07:59:59;;;;;;;8.95;8.35;;;;;;;37.11;36.30;100820.63;5013111;28;20225;-46
2023/06/26 08:02:27;;;;;;;7.53;7.00;;;;;;;37.25;36.10;100822.81;5013985;28;20220;-46
2023/06/26 08:04:55;;;;;;;7.63;7.22;;;;;;;37.51;36.35;100822.84;5014560;28;20197;-45
2023/06/26 08:07:23;;;;;;;8.50;8.00;;;;;;;37.24;36.75;100821.22;5013761;28;20549;-47
2023/06/26 08:09:50;;;;;;;8.13;7.63;;;;;;;37.10;36.41;100830.13;4988911;28;20226;-45
2023/06/26 08:12:18;;;;;;;8.43;7.75;;;;;;;36.46;36.63;100833.75;5013439;28;20202;-48
2023/06/26 08:14:46;;;;;;;8.30;7.80;;;;;;;35.79;37.53;100842.66;5014165;28;20233;-45
2023/06/26 08:17:15;;;;;;;8.90;8.10;;;;;;;35.19;38.32;100842.06;5013254;28;20205;-46
2023/06/26 08:19:43;;;;;;;8.50;8.00;;;;;;;34.66;39.25;100828.81;4987289;28;20623;-48
2023/06/26 08:22:11;;;;;;;8.80;8.30;;;;;;;34.07;41.24;100835.06;5013404;28;20228;-43
2023/06/26 08:24:38;;;;;;;9.30;8.50;;;;;;;33.14;42.69;100849.97;5013910;28;20198;-44
2023/06/26 08:27:07;;;;;;;9.93;9.25;;;;;;;32.38;43.14;100860.69;5017542;28;20715;-44
2023/06/26 08:29:36;;;;;;;9.73;8.63;;;;;;;31.99;44.23;100864.72;4998597;28;20224;-47
2023/06/26 08:32:04;;;;;;;10.33;9.23;;;;;;;31.60;46.57;100865.97;5018057;28;20229;-43
2023/06/26 08:34:33;;;;;;;12.10;11.10;;;;;;;31.47;47.19;100872.53;5017932;28;20251;-46
2023/06/26 08:37:00;;;;;;;11.53;10.60;;;;;;;31.42;49.63;100878.22;5018579;28;20204;-47
2023/06/26 08:39:29;;;;;;;12.93;11.83;;;;;;;31.71;50.14;100892.03;5017355;28;20218;-43
2023/06/26 08:41:57;;;;;;;12.87;11.77;;;;;;;31.93;49.09;100890.91;4994178;28;20228;-45
2023/06/26 08:44:25;;;;;;;14.87;13.77;;;;;;;32.07;49.87;100885.97;5016972;28;20198;-48
2023/06/26 08:46:53;;;;;;;15.80;14.40;;;;;;;31.82;51.77;100888.88;5018042;28;20233;-45
2023/06/26 08:49:26;;;;;;;16.40;13.77;;;;;;;32.33;51.99;100896.78;5017325;28;20213;-45
2023/06/26 08:52:01;;;;;;;15.17;13.80;;;;;;;32.66;50.80;100899.56;4994197;28;20202;-46
2023/06/26 08:54:38;;;;;;;15.70;14.30;;;;;;;32.29;51.98;100899.41;5016935;28;20204;-45
2023/06/26 08:57:07;;;;;;;16.30;15.00;;;;;;;32.36;52.45;100903.56;5017826;28;20208;-45
2023/06/26 08:59:35;;;;;;;17.37;15.87;;;;;;;31.86;55.09;100909.13;5018317;28;20225;-46
2023/06/26 09:02:03;;;;;;;15.67;14.30;;;;;;;31.56;55.14;100920.19;4993749;28;20571;-45
2023/06/26 09:04:31;;;;;;;12.13;10.97;;;;;;;31.20;55.84;100939.94;5018032;28;20207;-45
2023/06/26 09:07:01;;;;;;;11.20;10.30;;;;;;;30.28;58.64;100943.28;5017929;28;20205;-44
2023/06/26 09:09:29;;;;;;;10.87;9.67;;;;;;;29.44;60.87;100964.72;5018327;28;20403;-46
2023/06/26 09:11:57;;;;;;;10.20;9.40;;;;;;;28.98;64.39;100979.63;5018534;28;20297;-42
2023/06/26 09:14:25;;;;;;;12.23;11.23;;;;;;;28.72;68.57;100989.63;4994588;28;20220;-45
2023/06/26 09:16:53;;;;;;;10.40;9.70;;;;;;;28.21;71.63;100989.13;5017754;28;20433;-45
2023/06/26 09:19:21;;;;;;;10.43;9.53;;;;;;;28.04;75.63;100981.56;5017589;28;20484;-49
2023/06/26 09:21:51;;;;;;;11.07;10.23;;;;;;;28.20;71.75;100991.06;5016475;28;20437;-46
2023/06/26 09:24:22;;;;;;;11.03;10.10;;;;;;;28.10;73.21;101005.00;4992576;28;20467;-43
2023/06/26 09:26:51;;;;;;;10.00;9.10;;;;;;;28.06;70.89;101011.41;5017748;28;20455;-44
2023/06/26 09:29:20;;;;;;;10.63;9.60;;;;;;;27.76;72.84;101012.81;5017960;28;20448;-43
2023/06/26 09:31:48;;;;;;;10.90;9.40;;;;;;;27.60;76.80;101006.81;5016548;28;20445;-47
2023/06/26 09:34:16;;;;;;;9.70;9.00;;;;;;;27.07;81.71;101013.78;4991178;28;20487;-42
2023/06/26 09:36:46;;;;;;;10.33;9.37;;;;;;;26.81;86.35;101021.59;5017617;28;20483;-44
2023/06/26 09:39:14;;;;;;;10.93;9.90;;;;;;;26.52;92.86;101032.69;5016684;28;20823;-44
2023/06/26 09:41:44;;;;;;;9.53;8.47;;;;;;;26.20;97.19;101052.50;5016366;28;20468;-44
2023/06/26 09:44:14;;;;;;;10.27;9.27;;;;;;;25.88;100.00;101057.78;4990843;28;20457;-47
2023/06/26 09:46:45;;;;;;;10.63;9.80;;;;;;;25.53;100.00;101077.28;5017386;28;20492;-45
2023/06/26 09:49:13;;;;;;;10.63;9.60;;;;;;;25.25;100.00;101081.59;5018027;28;20449;-43
2023/06/26 09:51:42;;;;;;;9.97;9.00;;;;;;;24.98;100.00;101073.88;5016914;28;20504;-45
2023/06/26 09:54:11;;;;;;;10.83;9.83;;;;;;;24.61;100.00;101062.66;4998430;28;20469;-47
2023/06/26 09:56:39;;;;;;;15.97;10.40;;;;;;;24.33;100.00;101068.78;5016879;28;20451;-47
2023/06/26 09:59:09;;;;;;;12.17;11.00;;;;;;;24.01;100.00;101061.78;5017272;28;20522;-45
2023/06/26 10:01:41;;;;;;;14.40;10.30;;;;;;;23.58;100.00;101060.53;5016469;28;20473;-45
2023/06/26 10:04:09;;;;;;;19.70;11.40;;;;;;;23.31;100.00;101059.19;5017487;28;20938;-45
2023/06/26 10:06:42;;;;;;;11.70;10.70;;;;;;;23.05;100.00;101042.88;4990796;28;20536;-45
2023/06/26 10:09:11;;;;;;;12.50;11.27;;;;;;;22.96;100.00;101052.66;5016570;28;20491;-46
2023/06/26 10:11:45;;;;;;;16.47;10.60;;;;;;;22.95;100.00;101061.91;5016429;28;20425;-46
2023/06/26 10:14:16;;;;;;;11.40;10.30;;;;;;;22.99;100.00;101070.34;5017136;28;20440;-47
2023/06/26 10:16:47;;;;;;;13.27;11.40;;;;;;;23.01;100.00;101079.03;4991735;28;20457;-44
2023/06/26 10:19:18;;;;;;;13.50;11.40;;;;;;;23.05;100.00;101102.72;5016721;28;20456;-44
2023/06/26 10:21:46;;;;;;;12.70;11.37;;;;;;;23.15;100.00;101105.44;5015706;28;20559;-43
2023/06/26 10:24:14;;;;;;;11.17;10.07;;;;;;;23.10;100.00;101107.34;5016466;28;20437;-43
2023/06/26 10:26:45;;;;;;;13.60;12.27;;;;;;;22.92;100.00;101107.84;4993217;28;20800;-45
2023/06/26 10:29:16;;;;;;;12.53;11.50;;;;;;;22.67;100.00;101108.59;5016259;28;20973;-45
2023/06/26 10:31:50;;;;;;;14.30;13.00;;;;;;;22.36;100.00;101102.22;5016560;28;20852;-49
2023/06/26 10:34:19;;;;;;;14.07;12.90;;;;;;;22.20;100.00;101099.69;5015983;28;20448;-44
2023/06/26 10:36:48;;;;;;;12.53;11.10;;;;;;;22.10;100.00;101091.50;5016018;28;20510;-46
2023/06/26 10:39:15;;;;;;;12.40;11.40;;;;;;;22.09;100.00;101089.88;4990977;28;20480;-47
2023/06/26 10:41:43;;;;;;;12.10;10.93;;;;;;;21.96;100.00;101086.53;5015753;28;20503;-46
2023/06/26 10:44:42;;;;;;;12.37;11.27;;;;;;;22.04;100.00;101093.38;5016242;28;20437;-47
2023/06/26 10:47:10;;;;;;;13.07;11.77;;;;;;;22.09;100.00;101079.81;5016103;28;20432;-44
2023/06/26 10:49:39;;;;;;;11.60;10.47;;;;;;;22.16;100.00;101085.03;4991827;28;20818;-49
2023/06/26 10:52:08;;;;;;;13.10;11.97;;;;;;;22.30;100.00;101078.00;5015987;28;20432;-44
2023/06/26 10:54:38;;;;;;;13.10;11.73;;;;;;;22.42;100.00;101074.00;5016344;28;20437;-46
2023/06/26 10:57:08;;;;;;;11.60;10.60;;;;;;;22.40;100.00;101078.06;5016098;28;20429;-41
2023/06/26 10:59:40;;;;;;;13.10;11.90;;;;;;;22.40;100.00;101072.63;4989674;28;20475;-43
2023/06/26 11:02:08;;;;;;;11.90;10.57;;;;;;;22.51;100.00;101082.44;5015896;28;20950;-45
2023/06/26 11:04:40;;;;;;;16.87;12.43;;;;;;;23.10;100.00;101071.97;5017171;28;20460;-44
2023/06/26 11:07:19;;;;;;;10.63;9.43;;;;;;;23.76;100.00;101078.22;5016322;28;21022;-44
2023/06/26 11:10:01;;;;;;;13.03;11.87;;;;;;;24.27;100.00;101081.63;4992602;28;20480;-45
2023/06/26 11:12:37;;;;;;;11.77;10.67;;;;;;;24.82;100.00;101079.75;5015066;28;20437;-41
2023/06/26 11:15:08;;;;;;;11.60;9.53;;;;;;;24.96;100.00;101097.09;5015194;28;20930;-45
2023/06/26 11:17:37;;;;;;;10.30;9.23;;;;;;;25.12;100.00;101084.94;5015207;28;20429;-47
2023/06/26 11:20:07;;;;;;;11.00;7.93;;;;;;;25.20;100.00;101096.09;4997962;28;20472;-42
2023/06/26 11:22:36;;;;;;;10.07;7.43;;;;;;;25.47;100.00;101090.16;5015850;28;20425;-43